createdAt,value
2023-04-17T05:32:58.581Z,20.42
2023-04-17T05:35:25.817Z,19.95
2023-04-17T05:37:54.225Z,20.00
2023-04-17T05:40:21.600Z,19.10
2023-04-17T05:42:48.755Z,18.75
2023-04-17T05:45:17.943Z,19.15
2023-04-17T05:47:45.982Z,20.52
2023-04-17T05:50:13.477Z,16.02
2023-04-17T05:52:40.876Z,18.55
2023-04-17T05:55:10.321Z,19.25
2023-04-17T05:57:38.030Z,18.58
2023-04-17T06:00:11.317Z,17.92
2023-04-17T06:02:41.486Z,17.60
2023-04-17T06:05:09.780Z,19.92
2023-04-17T06:07:39.767Z,19.23
2023-04-17T06:10:15.235Z,16.50
2023-04-17T06:12:53.224Z,18.40
2023-04-17T06:15:35.790Z,17.23
2023-04-17T06:18:08.826Z,19.10
2023-04-17T06:23:13.995Z,17.33
2023-04-17T06:25:41.618Z,18.50
2023-04-17T06:28:12.320Z,17.90
2023-04-17T06:30:40.906Z,17.77
2023-04-17T06:33:09.104Z,20.05
2023-04-17T06:35:37.907Z,18.17
2023-04-17T06:38:06.277Z,18.55
2023-04-17T06:40:34.042Z,18.40
2023-04-17T06:43:06.583Z,16.70
2023-04-17T06:45:36.411Z,16.45
2023-04-17T06:48:04.177Z,17.13
2023-04-17T06:50:31.914Z,17.42
2023-04-17T06:52:59.840Z,17.35
2023-04-17T06:55:27.372Z,17.50
2023-04-17T06:57:56.886Z,16.65
2023-04-17T07:00:24.389Z,17.35
2023-04-17T07:02:54.366Z,16.15
2023-04-17T07:05:22.047Z,17.73
2023-04-17T07:07:49.305Z,16.27
2023-04-17T07:10:19.394Z,17.38
2023-04-17T07:12:47.098Z,17.63
2023-04-17T07:15:14.494Z,18.00
2023-04-17T07:17:42.241Z,17.55
2023-04-17T07:20:10.316Z,17.25
2023-04-17T07:22:38.357Z,16.23
2023-04-17T07:25:06.377Z,16.23
2023-04-17T07:27:34.168Z,16.70
2023-04-17T07:30:02.324Z,15.55
2023-04-17T07:32:30.306Z,14.85
2023-04-17T07:34:57.966Z,14.57
2023-04-17T07:37:25.678Z,15.50
2023-04-17T07:39:55.430Z,13.95
2023-04-17T07:42:23.284Z,15.38
2023-04-17T07:44:51.054Z,14.52
2023-04-17T07:47:19.225Z,13.65
2023-04-17T07:49:49.125Z,15.60
2023-04-17T07:52:18.348Z,15.27
2023-04-17T07:54:46.633Z,14.45
2023-04-17T07:57:16.424Z,14.10
2023-04-17T07:59:45.945Z,15.82
2023-04-17T08:02:14.497Z,14.15
2023-04-17T08:04:44.979Z,15.18
2023-04-17T08:07:14.547Z,14.65
2023-04-17T08:09:44.001Z,14.18
2023-04-17T08:12:12.323Z,14.77
2023-04-17T08:14:41.108Z,14.13
2023-04-17T08:17:10.203Z,13.88
2023-04-17T08:19:37.856Z,15.48
2023-04-17T08:22:11.132Z,15.73
2023-04-17T08:24:38.947Z,16.33
2023-04-17T08:27:08.015Z,13.88
2023-04-17T08:29:35.811Z,13.95
2023-04-17T08:32:13.126Z,13.05
2023-04-17T08:34:42.641Z,13.05
2023-04-17T08:37:12.679Z,13.32
2023-04-17T08:39:45.999Z,13.35
2023-04-17T08:42:18.846Z,14.80
2023-04-17T08:44:51.829Z,13.23
2023-04-17T08:47:20.356Z,14.38
2023-04-17T08:49:57.394Z,12.52
2023-04-17T08:52:50.576Z,12.63
2023-04-17T08:55:30.216Z,15.32
2023-04-17T08:57:59.480Z,14.52
2023-04-17T09:00:35.943Z,14.00
2023-04-17T09:03:08.215Z,15.07
2023-04-17T09:05:38.235Z,14.93
2023-04-17T09:08:24.403Z,14.35
2023-04-17T09:10:54.919Z,14.15
2023-04-17T09:13:25.564Z,12.52
2023-04-17T09:16:13.239Z,12.00
2023-04-17T09:18:43.216Z,12.38
2023-04-17T09:21:10.842Z,14.15
2023-04-17T09:23:56.353Z,12.38
2023-04-17T09:26:24.884Z,12.18
2023-04-17T09:29:04.237Z,12.15
2023-04-17T09:31:34.632Z,10.98
2023-04-17T09:34:08.090Z,11.68
2023-04-17T09:36:38.225Z,11.02
2023-04-17T09:39:22.666Z,10.63
2023-04-17T09:42:04.446Z,10.60
2023-04-17T09:44:34.549Z,9.73
2023-04-17T09:47:20.253Z,10.23
2023-04-17T09:49:53.506Z,11.50
2023-04-17T09:52:26.815Z,11.55
2023-04-17T09:54:57.919Z,13.05
2023-04-17T09:57:28.564Z,13.05
2023-04-17T10:00:04.413Z,13.48
2023-04-17T10:02:45.365Z,16.70
2023-04-17T10:05:15.214Z,16.15
2023-04-17T10:07:47.469Z,14.00
2023-04-17T10:10:30.561Z,14.10
2023-04-17T10:13:07.102Z,12.75
2023-04-17T10:15:36.761Z,14.65
2023-04-17T10:18:25.114Z,12.05
2023-04-17T10:20:55.768Z,12.95
2023-04-17T10:23:28.818Z,9.05
2023-04-17T10:29:10.212Z,8.02
2023-04-17T10:32:11.744Z,8.10
2023-04-17T10:34:43.976Z,7.10
2023-04-17T10:37:15.480Z,7.47
2023-04-17T10:39:56.827Z,7.07
2023-04-17T10:42:26.914Z,5.97
2023-04-17T10:44:59.887Z,5.80
2023-04-17T10:50:04.149Z,4.90
2023-04-17T10:52:32.904Z,4.82
2023-04-17T10:55:18.750Z,5.57
2023-04-17T10:58:02.473Z,4.90
2023-04-17T11:00:38.840Z,4.90
2023-04-17T11:03:07.684Z,4.88
2023-04-17T11:05:36.068Z,5.10
2023-04-17T11:08:06.448Z,6.05
2023-04-17T11:10:37.273Z,5.88
2023-04-17T11:13:04.922Z,5.53
2023-04-17T11:15:37.100Z,5.82
2023-04-17T11:18:05.444Z,6.68
2023-04-17T11:20:36.085Z,6.47
2023-04-17T11:23:05.110Z,7.78
2023-04-17T11:25:34.384Z,8.52
2023-04-17T11:28:05.071Z,7.82
2023-04-17T11:30:42.187Z,6.93
2023-04-17T11:33:09.941Z,7.70
2023-04-17T11:35:40.546Z,8.07
2023-04-17T11:38:14.968Z,8.35
2023-04-17T11:40:51.642Z,7.82
2023-04-17T11:43:23.776Z,8.40
2023-04-17T11:45:56.572Z,8.87
2023-04-17T11:48:26.533Z,8.43
2023-04-17T11:50:57.150Z,8.30
2023-04-17T11:53:25.490Z,7.38
2023-04-17T11:56:16.092Z,6.82
2023-04-17T11:58:49.893Z,6.38
2023-04-17T12:01:19.439Z,8.07
2023-04-17T12:03:48.255Z,7.05
2023-04-17T12:06:17.193Z,6.38
2023-04-17T12:08:47.258Z,6.53
2023-04-17T12:11:29.955Z,6.45
2023-04-17T12:13:57.920Z,6.13
2023-04-17T12:16:27.442Z,5.00
2023-04-17T12:18:55.881Z,5.35
2023-04-17T12:21:24.219Z,5.20
2023-04-17T12:23:52.430Z,4.53
2023-04-17T12:26:19.641Z,4.72
2023-04-17T12:28:47.965Z,4.47
2023-04-17T12:31:15.212Z,4.30
2023-04-17T12:33:43.514Z,4.15
2023-04-17T12:36:11.248Z,4.93
2023-04-17T12:38:38.557Z,4.32
2023-04-17T12:41:06.856Z,3.88
2023-04-17T12:43:34.301Z,4.30
2023-04-17T12:46:02.257Z,4.35
2023-04-17T12:48:32.716Z,4.47
2023-04-17T12:51:02.497Z,4.05
2023-04-17T12:53:30.404Z,3.42
2023-04-17T12:55:57.739Z,3.28
2023-04-17T12:58:25.421Z,3.65
2023-04-17T13:00:52.651Z,4.07
2023-04-17T13:03:26.351Z,3.25
2023-04-17T13:05:53.738Z,3.60
2023-04-17T13:08:24.096Z,3.70
2023-04-17T13:10:53.391Z,4.47
2023-04-17T13:13:21.612Z,3.92
2023-04-17T13:15:49.774Z,4.32
2023-04-17T13:18:17.462Z,4.35
2023-04-17T13:20:47.120Z,3.85
2023-04-17T13:23:14.570Z,4.18
2023-04-17T13:25:42.074Z,4.20
2023-04-17T13:28:09.388Z,4.18
2023-04-17T13:30:37.838Z,3.90
2023-04-17T13:33:05.711Z,3.63
2023-04-17T13:35:32.939Z,3.83
2023-04-17T13:38:02.953Z,4.20
2023-04-17T13:40:31.269Z,3.97
2023-04-17T13:42:58.577Z,3.80
2023-04-17T13:45:26.255Z,4.30
2023-04-17T13:47:53.981Z,3.28
2023-04-17T13:50:21.592Z,3.58
2023-04-17T13:52:49.250Z,3.60
2023-04-17T13:55:17.409Z,3.40
2023-04-17T13:57:44.656Z,4.00
2023-04-17T14:00:12.582Z,3.50
2023-04-17T14:02:40.382Z,3.53
2023-04-17T14:05:08.199Z,3.90
2023-04-17T14:07:35.986Z,3.58
2023-04-17T14:10:03.287Z,3.53
2023-04-17T14:12:30.953Z,4.20
2023-04-17T14:14:58.510Z,4.65
2023-04-17T14:17:26.370Z,4.43
2023-04-17T14:19:53.622Z,3.53
2023-04-17T14:22:21.536Z,4.40
2023-04-17T14:24:48.745Z,3.80
2023-04-17T14:27:16.565Z,4.75
2023-04-17T14:29:43.934Z,4.07
2023-04-17T14:32:11.574Z,4.25
2023-04-17T14:34:39.096Z,3.97
2023-04-17T14:37:06.336Z,4.53
2023-04-17T14:39:33.932Z,4.88
2023-04-17T14:42:02.129Z,4.55
2023-04-17T14:44:30.175Z,4.88
2023-04-17T14:46:57.992Z,4.20
2023-04-17T14:49:25.591Z,5.07
2023-04-17T14:51:52.963Z,5.05
2023-04-17T14:54:21.255Z,4.60
2023-04-17T14:56:50.230Z,4.38
2023-04-17T14:59:17.829Z,5.10
2023-04-17T15:01:44.929Z,4.65
2023-04-17T15:04:12.449Z,4.95
2023-04-17T15:06:39.868Z,4.05
2023-04-17T15:09:07.157Z,5.00
2023-04-17T15:11:34.668Z,5.45
2023-04-17T15:14:02.627Z,4.43
2023-04-17T15:16:30.772Z,5.00
2023-04-17T15:18:58.474Z,5.40
2023-04-17T15:21:26.536Z,4.30
2023-04-17T15:23:53.827Z,4.97
2023-04-17T15:26:21.056Z,5.20
2023-04-17T15:28:48.293Z,5.18
2023-04-17T15:31:15.983Z,4.25
2023-04-17T15:33:43.192Z,4.70
2023-04-17T15:36:11.348Z,4.03
2023-04-17T15:38:38.756Z,3.92
2023-04-17T15:41:06.105Z,4.38
2023-04-17T15:43:33.859Z,4.45
2023-04-17T15:46:03.321Z,4.07
2023-04-17T15:48:31.378Z,4.68
2023-04-17T15:50:58.514Z,4.10
2023-04-17T15:53:26.188Z,4.32
2023-04-17T15:55:53.353Z,3.78
2023-04-17T15:58:20.730Z,3.70
